Check out our new PWSWeather beta!
PWSweather.com
Personal Weather Stations
Station Observations
SEANO
CarmignanoIT

CarmignanoIT

Lat: 43.829667, Lon: 11.02622

Elevation: 142

Station Type: Davis Vantage Pro2

http://www.meteoseano.it

High Low Average
Temperature 63.9°F17.7°C 54.6°F12.6°C 58.8°F14.9°C
Dew Point 52.9°F11.6°C 48.2°F9.0°C 50.5°F10.3°C
Winds 16.1 mph 25.9 kmh Calm Calm 4.0 mph E6.4 kmh E
Wind Gusts 25.3 mph40.7 kmh -- 7.0 mph11.3 kmh
Humidity 89% 63% 74%
Pressure 30.03 in1016.9 mb 29.90 in1012.5 mb -
Precipitation 0.00 in0.0 mm - -
Hour Temp Dew Point Humidity Winds Wind Gusts Pressure Precip Precip Rate Daily Precip Total
12:00 AM 58.2°F14.6°C 50.3°F10.2°C 75% 6.9 mph N11.1 kmh N 10.4 mph16.7 kmh 30.04 in1017.3 mb - 0.00 in0.0 mm 0.00 in0.0 mm
12:10 AM 58.2°F14.6°C 50.3°F10.2°C 75% 6.9 mph N11.1 kmh N 11.5 mph18.5 kmh 30.04 in1017.3 mb - 0.00 in0.0 mm 0.00 in0.0 mm
12:15 AM 58.2°F14.6°C 50.3°F10.2°C 75% 4.6 mph NNE7.4 kmh NNE 9.2 mph14.8 kmh 30.04 in1017.3 mb - 0.00 in0.0 mm 0.00 in0.0 mm
12:20 AM 58.2°F14.6°C 50.3°F10.2°C 75% 5.8 mph N9.3 kmh N 10.4 mph16.7 kmh 30.04 in1017.3 mb - 0.00 in0.0 mm 0.00 in0.0 mm
12:25 AM 58.1°F14.5°C 49.9°F9.9°C 74% 6.9 mph NE11.1 kmh NE 11.5 mph18.5 kmh 30.04 in1017.3 mb - 0.00 in0.0 mm 0.00 in0.0 mm
12:30 AM 58.2°F14.6°C 50.0°F10.0°C 74% 5.8 mph N9.3 kmh N 11.5 mph18.5 kmh 30.04 in1017.3 mb - 0.00 in0.0 mm 0.00 in0.0 mm
12:35 AM 58.2°F14.6°C 50.0°F10.0°C 74% 6.9 mph NNE11.1 kmh NNE 11.5 mph18.5 kmh 30.03 in1016.9 mb - 0.00 in0.0 mm 0.00 in0.0 mm
12:40 AM 58.2°F14.6°C 50.0°F10.0°C 74% 5.8 mph N9.3 kmh N 9.2 mph14.8 kmh 30.03 in1016.9 mb - 0.00 in0.0 mm 0.00 in0.0 mm
12:45 AM 58.1°F14.5°C 49.9°F9.9°C 74% 8.1 mph N13.0 kmh N 16.1 mph25.9 kmh 30.03 in1016.9 mb - 0.00 in0.0 mm 0.00 in0.0 mm
12:50 AM 58.0°F14.4°C 49.8°F9.9°C 74% 4.6 mph NNE7.4 kmh NNE 8.1 mph13.0 kmh 30.03 in1016.9 mb - 0.00 in0.0 mm 0.00 in0.0 mm
12:55 AM 58.0°F14.4°C 49.8°F9.9°C 74% 6.9 mph NNE11.1 kmh NNE 9.2 mph14.8 kmh 30.03 in1016.9 mb - 0.00 in0.0 mm 0.00 in0.0 mm
01:00 AM 57.9°F14.4°C 49.7°F9.8°C 74% 8.1 mph NNE13.0 kmh NNE 9.2 mph14.8 kmh 30.03 in1016.9 mb - 0.00 in0.0 mm 0.00 in0.0 mm
01:10 AM 57.9°F14.4°C 49.7°F9.8°C 74% 4.6 mph NE7.4 kmh NE 8.1 mph13.0 kmh 30.03 in1016.9 mb - 0.00 in0.0 mm 0.00 in0.0 mm
01:15 AM 57.8°F14.3°C 49.6°F9.8°C 74% 4.6 mph NE7.4 kmh NE 6.9 mph11.1 kmh 30.03 in1016.9 mb - 0.00 in0.0 mm 0.00 in0.0 mm
01:20 AM 57.7°F14.3°C 49.5°F9.7°C 74% 3.5 mph NE5.6 kmh NE 9.2 mph14.8 kmh 30.03 in1016.9 mb - 0.00 in0.0 mm 0.00 in0.0 mm
01:25 AM 57.7°F14.3°C 49.5°F9.7°C 74% 3.5 mph NE5.6 kmh NE 4.6 mph7.4 kmh 30.03 in1016.9 mb - 0.00 in0.0 mm 0.00 in0.0 mm
01:30 AM 57.7°F14.3°C 49.5°F9.7°C 74% 2.3 mph NNE3.7 kmh NNE 3.5 mph5.6 kmh 30.03 in1016.9 mb - 0.00 in0.0 mm 0.00 in0.0 mm
01:35 AM 57.6°F14.2°C 49.4°F9.7°C 74% 2.3 mph NE3.7 kmh NE 3.5 mph5.6 kmh 30.03 in1016.9 mb - 0.00 in0.0 mm 0.00 in0.0 mm
01:40 AM 57.6°F14.2°C 49.4°F9.7°C 74% Calm Calm 2.3 mph3.7 kmh 30.03 in1016.9 mb - 0.00 in0.0 mm 0.00 in0.0 mm
01:45 AM 57.5°F14.2°C 49.6°F9.8°C 75% 1.2 mph NE1.9 kmh NE 3.5 mph5.6 kmh 30.03 in1016.9 mb - 0.00 in0.0 mm 0.00 in0.0 mm
01:50 AM 57.5°F14.2°C 49.3°F9.6°C 74% Calm Calm 1.2 mph1.9 kmh 30.03 in1016.9 mb - 0.00 in0.0 mm 0.00 in0.0 mm
01:55 AM 57.4°F14.1°C 49.5°F9.7°C 75% 1.2 mph NE1.9 kmh NE 2.3 mph3.7 kmh 30.03 in1016.9 mb - 0.00 in0.0 mm 0.00 in0.0 mm
02:00 AM 57.4°F14.1°C 49.5°F9.7°C 75% 1.2 mph NE1.9 kmh NE 3.5 mph5.6 kmh 30.03 in1016.9 mb - 0.00 in0.0 mm 0.00 in0.0 mm
02:10 AM 57.4°F14.1°C 49.2°F9.6°C 74% 6.9 mph N11.1 kmh N 10.4 mph16.7 kmh 30.03 in1016.9 mb - 0.00 in0.0 mm 0.00 in0.0 mm
02:15 AM 57.4°F14.1°C 49.2°F9.6°C 74% 8.1 mph N13.0 kmh N 11.5 mph18.5 kmh 30.03 in1016.9 mb - 0.00 in0.0 mm 0.00 in0.0 mm
02:20 AM 57.5°F14.2°C 48.9°F9.4°C 73% 8.1 mph NE13.0 kmh NE 12.7 mph20.4 kmh 30.03 in1016.9 mb - 0.00 in0.0 mm 0.00 in0.0 mm
02:25 AM 57.6°F14.2°C 49.0°F9.4°C 73% 8.1 mph N13.0 kmh N 9.2 mph14.8 kmh 30.02 in1016.6 mb - 0.00 in0.0 mm 0.00 in0.0 mm
02:30 AM 57.6°F14.2°C 49.0°F9.4°C 73% 5.8 mph NNE9.3 kmh NNE 9.2 mph14.8 kmh 30.02 in1016.6 mb - 0.00 in0.0 mm 0.00 in0.0 mm
02:35 AM 57.6°F14.2°C 49.0°F9.4°C 73% 2.3 mph NE3.7 kmh NE 4.6 mph7.4 kmh 30.02 in1016.6 mb - 0.00 in0.0 mm 0.00 in0.0 mm
02:40 AM 57.6°F14.2°C 49.0°F9.4°C 73% 6.9 mph NNE11.1 kmh NNE 10.4 mph16.7 kmh 30.02 in1016.6 mb - 0.00 in0.0 mm 0.00 in0.0 mm
02:45 AM 57.6°F14.2°C 49.0°F9.4°C 73% 5.8 mph N9.3 kmh N 10.4 mph16.7 kmh 30.02 in1016.6 mb - 0.00 in0.0 mm 0.00 in0.0 mm
02:50 AM 57.5°F14.2°C 48.9°F9.4°C 73% 4.6 mph NNE7.4 kmh NNE 8.1 mph13.0 kmh 30.02 in1016.6 mb - 0.00 in0.0 mm 0.00 in0.0 mm
02:55 AM 57.5°F14.2°C 48.9°F9.4°C 73% 2.3 mph NNE3.7 kmh NNE 3.5 mph5.6 kmh 30.02 in1016.6 mb - 0.00 in0.0 mm 0.00 in0.0 mm
03:00 AM 57.5°F14.2°C 48.9°F9.4°C 73% 1.2 mph NNE1.9 kmh NNE 3.5 mph5.6 kmh 30.02 in1016.6 mb - 0.00 in0.0 mm 0.00 in0.0 mm
03:10 AM 57.4°F14.1°C 49.2°F9.6°C 74% Calm Calm -- 30.02 in1016.6 mb - 0.00 in0.0 mm 0.00 in0.0 mm
03:15 AM 57.3°F14.1°C 49.1°F9.5°C 74% 3.5 mph NE5.6 kmh NE 9.2 mph14.8 kmh 30.02 in1016.6 mb - 0.00 in0.0 mm 0.00 in0.0 mm
03:20 AM 57.3°F14.1°C 49.1°F9.5°C 74% Calm Calm 4.6 mph7.4 kmh 30.02 in1016.6 mb - 0.00 in0.0 mm 0.00 in0.0 mm
03:25 AM 57.3°F14.1°C 49.1°F9.5°C 74% Calm Calm 1.2 mph1.9 kmh 30.02 in1016.6 mb - 0.00 in0.0 mm 0.00 in0.0 mm
03:30 AM 57.2°F14.0°C 49.0°F9.4°C 74% 2.3 mph ENE3.7 kmh ENE 3.5 mph5.6 kmh 30.02 in1016.6 mb - 0.00 in0.0 mm 0.00 in0.0 mm
03:35 AM 57.1°F13.9°C 48.9°F9.4°C 74% 4.6 mph NNW7.4 kmh NNW 8.1 mph13.0 kmh 30.02 in1016.6 mb - 0.00 in0.0 mm 0.00 in0.0 mm
03:40 AM 57.1°F13.9°C 48.9°F9.4°C 74% 3.5 mph NNE5.6 kmh NNE 3.5 mph5.6 kmh 30.02 in1016.6 mb - 0.00 in0.0 mm 0.00 in0.0 mm
03:45 AM 57.1°F13.9°C 48.9°F9.4°C 74% 1.2 mph N1.9 kmh N 5.8 mph9.3 kmh 30.02 in1016.6 mb - 0.00 in0.0 mm 0.00 in0.0 mm
03:50 AM 57.2°F14.0°C 48.6°F9.2°C 73% 3.5 mph N5.6 kmh N 6.9 mph11.1 kmh 30.02 in1016.6 mb - 0.00 in0.0 mm 0.00 in0.0 mm
03:55 AM 57.2°F14.0°C 48.6°F9.2°C 73% 3.5 mph N5.6 kmh N 8.1 mph13.0 kmh 30.02 in1016.6 mb - 0.00 in0.0 mm 0.00 in0.0 mm
04:00 AM 57.3°F14.1°C 48.7°F9.3°C 73% 4.6 mph NNE7.4 kmh NNE 4.6 mph7.4 kmh 30.02 in1016.6 mb - 0.00 in0.0 mm 0.00 in0.0 mm
04:10 AM 57.3°F14.1°C 48.7°F9.3°C 73% 3.5 mph N5.6 kmh N 9.2 mph14.8 kmh 30.02 in1016.6 mb - 0.00 in0.0 mm 0.00 in0.0 mm
04:15 AM 57.3°F14.1°C 48.7°F9.3°C 73% 4.6 mph N7.4 kmh N 8.1 mph13.0 kmh 30.02 in1016.6 mb - 0.00 in0.0 mm 0.00 in0.0 mm
04:20 AM 57.3°F14.1°C 48.3°F9.1°C 72% 4.6 mph NNE7.4 kmh NNE 4.6 mph7.4 kmh 30.02 in1016.6 mb - 0.00 in0.0 mm 0.00 in0.0 mm
04:25 AM 57.3°F14.1°C 48.3°F9.1°C 72% 4.6 mph NE7.4 kmh NE 8.1 mph13.0 kmh 30.02 in1016.6 mb - 0.00 in0.0 mm 0.00 in0.0 mm
04:30 AM 57.3°F14.1°C 48.3°F9.1°C 72% 4.6 mph NNE7.4 kmh NNE 6.9 mph11.1 kmh 30.02 in1016.6 mb - 0.00 in0.0 mm 0.00 in0.0 mm
04:35 AM 57.3°F14.1°C 48.3°F9.1°C 72% 2.3 mph NE3.7 kmh NE 3.5 mph5.6 kmh 30.02 in1016.6 mb - 0.00 in0.0 mm 0.00 in0.0 mm
04:40 AM 57.2°F14.0°C 48.3°F9.1°C 72% 2.3 mph NE3.7 kmh NE 4.6 mph7.4 kmh 30.02 in1016.6 mb - 0.00 in0.0 mm 0.00 in0.0 mm
04:45 AM 57.2°F14.0°C 48.3°F9.1°C 72% 3.5 mph NE5.6 kmh NE 3.5 mph5.6 kmh 30.02 in1016.6 mb - 0.00 in0.0 mm 0.00 in0.0 mm
04:50 AM 57.3°F14.1°C 48.3°F9.1°C 72% 3.5 mph N5.6 kmh N 4.6 mph7.4 kmh 30.02 in1016.6 mb - 0.00 in0.0 mm 0.00 in0.0 mm
04:55 AM 57.3°F14.1°C 48.3°F9.1°C 72% 2.3 mph NNE3.7 kmh NNE 6.9 mph11.1 kmh 30.02 in1016.6 mb - 0.00 in0.0 mm 0.00 in0.0 mm
05:00 AM 57.2°F14.0°C 48.3°F9.1°C 72% 4.6 mph NNE7.4 kmh NNE 8.1 mph13.0 kmh 30.02 in1016.6 mb - 0.00 in0.0 mm 0.00 in0.0 mm
05:10 AM 57.1°F13.9°C 48.2°F9.0°C 72% 2.3 mph ENE3.7 kmh ENE 4.6 mph7.4 kmh 30.02 in1016.6 mb - 0.00 in0.0 mm 0.00 in0.0 mm
05:15 AM 57.2°F14.0°C 48.3°F9.1°C 72% 4.6 mph NNE7.4 kmh NNE 11.5 mph18.5 kmh 30.02 in1016.6 mb - 0.00 in0.0 mm 0.00 in0.0 mm
05:20 AM 57.3°F14.1°C 48.3°F9.1°C 72% 5.8 mph NNE9.3 kmh NNE 9.2 mph14.8 kmh 30.02 in1016.6 mb - 0.00 in0.0 mm 0.00 in0.0 mm
05:25 AM 57.4°F14.1°C 48.4°F9.1°C 72% 3.5 mph N5.6 kmh N 5.8 mph9.3 kmh 30.02 in1016.6 mb - 0.00 in0.0 mm 0.00 in0.0 mm
05:30 AM 57.4°F14.1°C 48.4°F9.1°C 72% 2.3 mph NNE3.7 kmh NNE 3.5 mph5.6 kmh 30.02 in1016.6 mb - 0.00 in0.0 mm 0.00 in0.0 mm
05:35 AM 57.4°F14.1°C 48.4°F9.1°C 72% 2.3 mph NE3.7 kmh NE 4.6 mph7.4 kmh 30.02 in1016.6 mb - 0.00 in0.0 mm 0.00 in0.0 mm
05:40 AM 57.4°F14.1°C 48.4°F9.1°C 72% 3.5 mph NE5.6 kmh NE 4.6 mph7.4 kmh 30.02 in1016.6 mb - 0.00 in0.0 mm 0.00 in0.0 mm
05:45 AM 57.4°F14.1°C 48.4°F9.1°C 72% 4.6 mph ENE7.4 kmh ENE 6.9 mph11.1 kmh 30.02 in1016.6 mb - 0.00 in0.0 mm 0.00 in0.0 mm
05:50 AM 57.4°F14.1°C 48.4°F9.1°C 72% 6.9 mph NNE11.1 kmh NNE 11.5 mph18.5 kmh 30.02 in1016.6 mb - 0.00 in0.0 mm 0.00 in0.0 mm
05:55 AM 57.4°F14.1°C 48.4°F9.1°C 72% 4.6 mph NE7.4 kmh NE 10.4 mph16.7 kmh 30.02 in1016.6 mb - 0.00 in0.0 mm 0.00 in0.0 mm
06:00 AM 57.5°F14.2°C 48.2°F9.0°C 71% 4.6 mph NNE7.4 kmh NNE 11.5 mph18.5 kmh 30.02 in1016.6 mb - 0.00 in0.0 mm 0.00 in0.0 mm
06:10 AM 57.5°F14.2°C 48.2°F9.0°C 71% 3.5 mph ENE5.6 kmh ENE 8.1 mph13.0 kmh 30.02 in1016.6 mb - 0.00 in0.0 mm 0.00 in0.0 mm
06:15 AM 57.6°F14.2°C 48.3°F9.1°C 71% 3.5 mph NE5.6 kmh NE 4.6 mph7.4 kmh 30.02 in1016.6 mb - 0.00 in0.0 mm 0.00 in0.0 mm
06:20 AM 57.6°F14.2°C 48.3°F9.1°C 71% 5.8 mph NE9.3 kmh NE 5.8 mph9.3 kmh 30.02 in1016.6 mb - 0.00 in0.0 mm 0.00 in0.0 mm
06:25 AM 57.6°F14.2°C 48.3°F9.1°C 71% 5.8 mph NE9.3 kmh NE 8.1 mph13.0 kmh 30.02 in1016.6 mb - 0.00 in0.0 mm 0.00 in0.0 mm
06:30 AM 57.6°F14.2°C 48.3°F9.1°C 71% 4.6 mph NE7.4 kmh NE 10.4 mph16.7 kmh 30.03 in1016.9 mb - 0.00 in0.0 mm 0.00 in0.0 mm
06:35 AM 57.6°F14.2°C 48.3°F9.1°C 71% 6.9 mph NE11.1 kmh NE 10.4 mph16.7 kmh 30.02 in1016.6 mb - 0.00 in0.0 mm 0.00 in0.0 mm
06:40 AM 57.5°F14.2°C 48.2°F9.0°C 71% 6.9 mph NE11.1 kmh NE 10.4 mph16.7 kmh 30.02 in1016.6 mb - 0.00 in0.0 mm 0.00 in0.0 mm
06:45 AM 57.5°F14.2°C 48.2°F9.0°C 71% 6.9 mph NE11.1 kmh NE 11.5 mph18.5 kmh 30.02 in1016.6 mb - 0.00 in0.0 mm 0.00 in0.0 mm
06:50 AM 57.5°F14.2°C 48.2°F9.0°C 71% 5.8 mph NNE9.3 kmh NNE 9.2 mph14.8 kmh 30.02 in1016.6 mb - 0.00 in0.0 mm 0.00 in0.0 mm
06:55 AM 57.5°F14.2°C 48.2°F9.0°C 71% 3.5 mph NE5.6 kmh NE 4.6 mph7.4 kmh 30.02 in1016.6 mb - 0.00 in0.0 mm 0.00 in0.0 mm
07:00 AM 57.5°F14.2°C 48.2°F9.0°C 71% 4.6 mph N7.4 kmh N 11.5 mph18.5 kmh 30.02 in1016.6 mb - 0.00 in0.0 mm 0.00 in0.0 mm
07:10 AM 57.5°F14.2°C 48.2°F9.0°C 71% 10.4 mph NNE16.7 kmh NNE 12.7 mph20.4 kmh 30.03 in1016.9 mb - 0.00 in0.0 mm 0.00 in0.0 mm
07:15 AM 57.5°F14.2°C 48.2°F9.0°C 71% 8.1 mph NE13.0 kmh NE 11.5 mph18.5 kmh 30.03 in1016.9 mb - 0.00 in0.0 mm 0.00 in0.0 mm
07:20 AM 57.6°F14.2°C 48.3°F9.1°C 71% 4.6 mph NNE7.4 kmh NNE 19.6 mph31.5 kmh 30.02 in1016.6 mb - 0.00 in0.0 mm 0.00 in0.0 mm
07:25 AM 57.6°F14.2°C 48.3°F9.1°C 71% 8.1 mph NNE13.0 kmh NNE 11.5 mph18.5 kmh 30.02 in1016.6 mb - 0.00 in0.0 mm 0.00 in0.0 mm
07:30 AM 57.7°F14.3°C 48.4°F9.1°C 71% 3.5 mph NE5.6 kmh NE 8.1 mph13.0 kmh 30.02 in1016.6 mb - 0.00 in0.0 mm 0.00 in0.0 mm
07:35 AM 57.7°F14.3°C 48.4°F9.1°C 71% 3.5 mph NNE5.6 kmh NNE 5.8 mph9.3 kmh 30.02 in1016.6 mb - 0.00 in0.0 mm 0.00 in0.0 mm
07:40 AM 57.7°F14.3°C 48.7°F9.3°C 72% Calm Calm 1.2 mph1.9 kmh 30.02 in1016.6 mb - 0.00 in0.0 mm 0.00 in0.0 mm
07:45 AM 57.7°F14.3°C 48.7°F9.3°C 72% 3.5 mph NE5.6 kmh NE 9.2 mph14.8 kmh 30.02 in1016.6 mb - 0.00 in0.0 mm 0.00 in0.0 mm
07:50 AM 57.8°F14.3°C 48.4°F9.1°C 71% 2.3 mph NE3.7 kmh NE 3.5 mph5.6 kmh 30.03 in1016.9 mb - 0.00 in0.0 mm 0.00 in0.0 mm
07:55 AM 57.9°F14.4°C 48.5°F9.2°C 71% 4.6 mph NE7.4 kmh NE 9.2 mph14.8 kmh 30.03 in1016.9 mb - 0.00 in0.0 mm 0.00 in0.0 mm
08:00 AM 58.0°F14.4°C 48.7°F9.3°C 71% 4.6 mph NE7.4 kmh NE 6.9 mph11.1 kmh 30.03 in1016.9 mb - 0.00 in0.0 mm 0.00 in0.0 mm
08:10 AM 58.5°F14.7°C 49.1°F9.5°C 71% 3.5 mph NE5.6 kmh NE 9.2 mph14.8 kmh 30.03 in1016.9 mb - 0.00 in0.0 mm 0.00 in0.0 mm
08:15 AM 58.9°F14.9°C 49.5°F9.7°C 71% 6.9 mph NE11.1 kmh NE 9.2 mph14.8 kmh 30.03 in1016.9 mb - 0.00 in0.0 mm 0.00 in0.0 mm
08:20 AM 59.2°F15.1°C 49.0°F9.4°C 69% 5.8 mph NE9.3 kmh NE 8.1 mph13.0 kmh 30.03 in1016.9 mb - 0.00 in0.0 mm 0.00 in0.0 mm
08:25 AM 59.4°F15.2°C 49.6°F9.8°C 70% 3.5 mph NE5.6 kmh NE 9.2 mph14.8 kmh 30.03 in1016.9 mb - 0.00 in0.0 mm 0.00 in0.0 mm
08:30 AM 59.6°F15.3°C 49.4°F9.7°C 69% 4.6 mph NE7.4 kmh NE 9.2 mph14.8 kmh 30.03 in1016.9 mb - 0.00 in0.0 mm 0.00 in0.0 mm
08:35 AM 59.7°F15.4°C 49.5°F9.7°C 69% 3.5 mph N5.6 kmh N 10.4 mph16.7 kmh 30.02 in1016.6 mb - 0.00 in0.0 mm 0.00 in0.0 mm
08:40 AM 59.9°F15.5°C 49.7°F9.8°C 69% 4.6 mph N7.4 kmh N 9.2 mph14.8 kmh 30.02 in1016.6 mb - 0.00 in0.0 mm 0.00 in0.0 mm
08:45 AM 60.1°F15.6°C 49.9°F9.9°C 69% 2.3 mph N3.7 kmh N 8.1 mph13.0 kmh 30.02 in1016.6 mb - 0.00 in0.0 mm 0.00 in0.0 mm
08:50 AM 60.2°F15.7°C 49.6°F9.8°C 68% 6.9 mph N11.1 kmh N 11.5 mph18.5 kmh 30.02 in1016.6 mb - 0.00 in0.0 mm 0.00 in0.0 mm
08:55 AM 60.4°F15.8°C 50.2°F10.1°C 69% 5.8 mph NE9.3 kmh NE 10.4 mph16.7 kmh 30.02 in1016.6 mb - 0.00 in0.0 mm 0.00 in0.0 mm
09:00 AM 60.6°F15.9°C 50.0°F10.0°C 68% 5.8 mph N9.3 kmh N 9.2 mph14.8 kmh 30.02 in1016.6 mb - 0.00 in0.0 mm 0.00 in0.0 mm
09:10 AM 60.9°F16.1°C 50.3°F10.2°C 68% 4.6 mph NE7.4 kmh NE 5.8 mph9.3 kmh 30.02 in1016.6 mb - 0.00 in0.0 mm 0.00 in0.0 mm
09:15 AM 61.1°F16.2°C 50.5°F10.3°C 68% 5.8 mph NE9.3 kmh NE 9.2 mph14.8 kmh 30.02 in1016.6 mb - 0.00 in0.0 mm 0.00 in0.0 mm
09:20 AM 61.2°F16.2°C 50.6°F10.3°C 68% 6.9 mph NE11.1 kmh NE 13.8 mph22.2 kmh 30.02 in1016.6 mb - 0.00 in0.0 mm 0.00 in0.0 mm
09:25 AM 61.3°F16.3°C 50.2°F10.1°C 67% 8.1 mph N13.0 kmh N 11.5 mph18.5 kmh 30.02 in1016.6 mb - 0.00 in0.0 mm 0.00 in0.0 mm
09:30 AM 61.3°F16.3°C 50.2°F10.1°C 67% 6.9 mph N11.1 kmh N 11.5 mph18.5 kmh 30.02 in1016.6 mb - 0.00 in0.0 mm 0.00 in0.0 mm
09:35 AM 61.6°F16.4°C 50.5°F10.3°C 67% 9.2 mph N14.8 kmh N 11.5 mph18.5 kmh 30.02 in1016.6 mb - 0.00 in0.0 mm 0.00 in0.0 mm
09:40 AM 61.7°F16.5°C 50.2°F10.1°C 66% 6.9 mph NNE11.1 kmh NNE 9.2 mph14.8 kmh 30.02 in1016.6 mb - 0.00 in0.0 mm 0.00 in0.0 mm
09:45 AM 61.9°F16.6°C 50.8°F10.4°C 67% 3.5 mph NE5.6 kmh NE 9.2 mph14.8 kmh 30.02 in1016.6 mb - 0.00 in0.0 mm 0.00 in0.0 mm
09:50 AM 62.2°F16.8°C 51.1°F10.6°C 67% 5.8 mph NE9.3 kmh NE 10.4 mph16.7 kmh 30.03 in1016.9 mb - 0.00 in0.0 mm 0.00 in0.0 mm
09:55 AM 62.5°F16.9°C 51.0°F10.6°C 66% 8.1 mph N13.0 kmh N 12.7 mph20.4 kmh 30.03 in1016.9 mb - 0.00 in0.0 mm 0.00 in0.0 mm
10:00 AM 62.6°F17.0°C 51.1°F10.6°C 66% 6.9 mph NNE11.1 kmh NNE 11.5 mph18.5 kmh 30.02 in1016.6 mb - 0.00 in0.0 mm 0.00 in0.0 mm
10:10 AM 62.9°F17.2°C 51.0°F10.6°C 65% 6.9 mph NNE11.1 kmh NNE 9.2 mph14.8 kmh 30.03 in1016.9 mb - 0.00 in0.0 mm 0.00 in0.0 mm
10:15 AM 63.1°F17.3°C 51.1°F10.6°C 65% 10.4 mph N16.7 kmh N 16.1 mph25.9 kmh 30.02 in1016.6 mb - 0.00 in0.0 mm 0.00 in0.0 mm
10:20 AM 63.0°F17.2°C 51.0°F10.6°C 65% 8.1 mph N13.0 kmh N 10.4 mph16.7 kmh 30.03 in1016.9 mb - 0.00 in0.0 mm 0.00 in0.0 mm
10:25 AM 63.1°F17.3°C 51.1°F10.6°C 65% 9.2 mph N14.8 kmh N 16.1 mph25.9 kmh 30.03 in1016.9 mb - 0.00 in0.0 mm 0.00 in0.0 mm
10:30 AM 63.0°F17.2°C 51.1°F10.6°C 65% 8.1 mph N13.0 kmh N 11.5 mph18.5 kmh 30.03 in1016.9 mb - 0.00 in0.0 mm 0.00 in0.0 mm
10:35 AM 63.2°F17.3°C 51.2°F10.7°C 65% 6.9 mph N11.1 kmh N 11.5 mph18.5 kmh 30.03 in1016.9 mb - 0.00 in0.0 mm 0.00 in0.0 mm
10:40 AM 63.4°F17.4°C 51.0°F10.6°C 64% 6.9 mph N11.1 kmh N 8.1 mph13.0 kmh 30.03 in1016.9 mb - 0.00 in0.0 mm 0.00 in0.0 mm
10:45 AM 63.5°F17.5°C 51.1°F10.6°C 64% 11.5 mph N18.5 kmh N 16.1 mph25.9 kmh 30.03 in1016.9 mb - 0.00 in0.0 mm 0.00 in0.0 mm
10:50 AM 63.2°F17.3°C 50.9°F10.5°C 64% 8.1 mph N13.0 kmh N 10.4 mph16.7 kmh 30.03 in1016.9 mb - 0.00 in0.0 mm 0.00 in0.0 mm
10:55 AM 63.3°F17.4°C 51.4°F10.8°C 65% 8.1 mph NNE13.0 kmh NNE 11.5 mph18.5 kmh 30.03 in1016.9 mb - 0.00 in0.0 mm 0.00 in0.0 mm
11:00 AM 63.4°F17.4°C 51.0°F10.6°C 64% 9.2 mph N14.8 kmh N 15.0 mph24.1 kmh 30.03 in1016.9 mb - 0.00 in0.0 mm 0.00 in0.0 mm
11:10 AM 63.5°F17.5°C 51.1°F10.6°C 64% 8.1 mph N13.0 kmh N 11.5 mph18.5 kmh 30.03 in1016.9 mb - 0.00 in0.0 mm 0.00 in0.0 mm
11:15 AM 63.7°F17.6°C 51.7°F10.9°C 65% 5.8 mph N9.3 kmh N 10.4 mph16.7 kmh 30.02 in1016.6 mb - 0.00 in0.0 mm 0.00 in0.0 mm
11:20 AM 63.9°F17.7°C 51.1°F10.6°C 63% 10.4 mph N16.7 kmh N 15.0 mph24.1 kmh 30.02 in1016.6 mb - 0.00 in0.0 mm 0.00 in0.0 mm
11:25 AM 63.7°F17.6°C 51.3°F10.7°C 64% 9.2 mph N14.8 kmh N 11.5 mph18.5 kmh 30.02 in1016.6 mb - 0.00 in0.0 mm 0.00 in0.0 mm
11:30 AM 63.4°F17.4°C 51.0°F10.6°C 64% 9.2 mph N14.8 kmh N 11.5 mph18.5 kmh 30.02 in1016.6 mb - 0.00 in0.0 mm 0.00 in0.0 mm
11:35 AM 63.2°F17.3°C 51.2°F10.7°C 65% 5.8 mph N9.3 kmh N 11.5 mph18.5 kmh 30.02 in1016.6 mb - 0.00 in0.0 mm 0.00 in0.0 mm
11:40 AM 63.1°F17.3°C 51.1°F10.6°C 65% 5.8 mph NNE9.3 kmh NNE 10.4 mph16.7 kmh 30.02 in1016.6 mb - 0.00 in0.0 mm 0.00 in0.0 mm
11:45 AM 62.8°F17.1°C 50.9°F10.5°C 65% 9.2 mph N14.8 kmh N 13.8 mph22.2 kmh 30.02 in1016.6 mb - 0.00 in0.0 mm 0.00 in0.0 mm
11:50 AM 62.7°F17.1°C 51.2°F10.7°C 66% 6.9 mph NE11.1 kmh NE 13.8 mph22.2 kmh 30.02 in1016.6 mb - 0.00 in0.0 mm 0.00 in0.0 mm
11:55 AM 62.6°F17.0°C 51.1°F10.6°C 66% 8.1 mph NNE13.0 kmh NNE 10.4 mph16.7 kmh 30.02 in1016.6 mb - 0.00 in0.0 mm 0.00 in0.0 mm
12:00 PM 62.4°F16.9°C 50.9°F10.5°C 66% 6.9 mph NE11.1 kmh NE 11.5 mph18.5 kmh 30.01 in1016.3 mb - 0.00 in0.0 mm 0.00 in0.0 mm
12:10 PM 62.4°F16.9°C 50.9°F10.5°C 66% 8.1 mph NNE13.0 kmh NNE 11.5 mph18.5 kmh 30.01 in1016.3 mb - 0.00 in0.0 mm 0.00 in0.0 mm
12:15 PM 62.6°F17.0°C 51.5°F10.8°C 67% 4.6 mph N7.4 kmh N 5.8 mph9.3 kmh 30.01 in1016.3 mb - 0.00 in0.0 mm 0.00 in0.0 mm
12:20 PM 62.5°F16.9°C 51.0°F10.6°C 66% 16.1 mph N25.9 kmh N 23.0 mph37.0 kmh 30.01 in1016.3 mb - 0.00 in0.0 mm 0.00 in0.0 mm
12:25 PM 62.4°F16.9°C 51.3°F10.7°C 67% 6.9 mph NNE11.1 kmh NNE 12.7 mph20.4 kmh 30.01 in1016.3 mb - 0.00 in0.0 mm 0.00 in0.0 mm
12:30 PM 62.4°F16.9°C 51.3°F10.7°C 67% 16.1 mph NE25.9 kmh NE 25.3 mph40.7 kmh 30.01 in1016.3 mb - 0.00 in0.0 mm 0.00 in0.0 mm
12:35 PM 62.1°F16.7°C 51.0°F10.6°C 67% 8.1 mph NE13.0 kmh NE 13.8 mph22.2 kmh 30.01 in1016.3 mb - 0.00 in0.0 mm 0.00 in0.0 mm
12:40 PM 62.1°F16.7°C 51.0°F10.6°C 67% 12.7 mph NNE20.4 kmh NNE 20.7 mph33.3 kmh 30.00 in1015.9 mb - 0.00 in0.0 mm 0.00 in0.0 mm
12:45 PM 62.2°F16.8°C 51.1°F10.6°C 67% 12.7 mph NNE20.4 kmh NNE 13.8 mph22.2 kmh 30.00 in1015.9 mb - 0.00 in0.0 mm 0.00 in0.0 mm
12:50 PM 62.2°F16.8°C 51.1°F10.6°C 67% 11.5 mph NNE18.5 kmh NNE 17.3 mph27.8 kmh 30.00 in1015.9 mb - 0.00 in0.0 mm 0.00 in0.0 mm
12:55 PM 62.1°F16.7°C 51.0°F10.6°C 67% 15.0 mph NE24.1 kmh NE 19.6 mph31.5 kmh 30.00 in1015.9 mb - 0.00 in0.0 mm 0.00 in0.0 mm
01:00 PM 61.9°F16.6°C 50.8°F10.4°C 67% 10.4 mph NNE16.7 kmh NNE 17.3 mph27.8 kmh 30.00 in1015.9 mb - 0.00 in0.0 mm 0.00 in0.0 mm
01:10 PM 61.8°F16.6°C 50.7°F10.4°C 67% 13.8 mph NNE22.2 kmh NNE 23.0 mph37.0 kmh 30.00 in1015.9 mb - 0.00 in0.0 mm 0.00 in0.0 mm
01:15 PM 61.7°F16.5°C 50.6°F10.3°C 67% 10.4 mph N16.7 kmh N 12.7 mph20.4 kmh 29.99 in1015.6 mb - 0.00 in0.0 mm 0.00 in0.0 mm
01:20 PM 61.6°F16.4°C 50.5°F10.3°C 67% 12.7 mph NE20.4 kmh NE 20.7 mph33.3 kmh 29.99 in1015.6 mb - 0.00 in0.0 mm 0.00 in0.0 mm
01:25 PM 61.5°F16.4°C 50.4°F10.2°C 67% 8.1 mph NE13.0 kmh NE 12.7 mph20.4 kmh 29.99 in1015.6 mb - 0.00 in0.0 mm 0.00 in0.0 mm
01:30 PM 61.5°F16.4°C 50.8°F10.4°C 68% 5.8 mph N9.3 kmh N 12.7 mph20.4 kmh 29.99 in1015.6 mb - 0.00 in0.0 mm 0.00 in0.0 mm
01:35 PM 61.5°F16.4°C 50.4°F10.2°C 67% 9.2 mph NE14.8 kmh NE 12.7 mph20.4 kmh 29.98 in1015.2 mb - 0.00 in0.0 mm 0.00 in0.0 mm
01:40 PM 61.3°F16.3°C 50.7°F10.4°C 68% 11.5 mph NNE18.5 kmh NNE 18.4 mph29.6 kmh 29.98 in1015.2 mb - 0.00 in0.0 mm 0.00 in0.0 mm
01:45 PM 61.3°F16.3°C 50.6°F10.3°C 68% 9.2 mph NE14.8 kmh NE 15.0 mph24.1 kmh 29.98 in1015.2 mb - 0.00 in0.0 mm 0.00 in0.0 mm
01:50 PM 61.4°F16.3°C 50.7°F10.4°C 68% 8.1 mph NE13.0 kmh NE 9.2 mph14.8 kmh 29.98 in1015.2 mb - 0.00 in0.0 mm 0.00 in0.0 mm
01:55 PM 61.4°F16.3°C 50.8°F10.4°C 68% 6.9 mph NNE11.1 kmh NNE 10.4 mph16.7 kmh 29.97 in1014.9 mb - 0.00 in0.0 mm 0.00 in0.0 mm
02:00 PM 61.6°F16.4°C 50.9°F10.5°C 68% 8.1 mph NNE13.0 kmh NNE 11.5 mph18.5 kmh 29.97 in1014.9 mb - 0.00 in0.0 mm 0.00 in0.0 mm
02:10 PM 61.8°F16.6°C 51.1°F10.6°C 68% 5.8 mph NNE9.3 kmh NNE 9.2 mph14.8 kmh 29.97 in1014.9 mb - 0.00 in0.0 mm 0.00 in0.0 mm
02:15 PM 61.8°F16.6°C 51.1°F10.6°C 68% 8.1 mph NE13.0 kmh NE 10.4 mph16.7 kmh 29.97 in1014.9 mb - 0.00 in0.0 mm 0.00 in0.0 mm
02:20 PM 61.7°F16.5°C 51.0°F10.6°C 68% 8.1 mph N13.0 kmh N 9.2 mph14.8 kmh 29.97 in1014.9 mb - 0.00 in0.0 mm 0.00 in0.0 mm
02:25 PM 61.8°F16.6°C 51.1°F10.6°C 68% 8.1 mph NNE13.0 kmh NNE 11.5 mph18.5 kmh 29.97 in1014.9 mb - 0.00 in0.0 mm 0.00 in0.0 mm
02:30 PM 61.9°F16.6°C 51.2°F10.7°C 68% 3.5 mph NE5.6 kmh NE 5.8 mph9.3 kmh 29.97 in1014.9 mb - 0.00 in0.0 mm 0.00 in0.0 mm
02:35 PM 61.9°F16.6°C 51.2°F10.7°C 68% 5.8 mph N9.3 kmh N 11.5 mph18.5 kmh 29.97 in1014.9 mb - 0.00 in0.0 mm 0.00 in0.0 mm
02:40 PM 62.0°F16.7°C 51.3°F10.7°C 68% 2.3 mph N3.7 kmh N 9.2 mph14.8 kmh 29.96 in1014.6 mb - 0.00 in0.0 mm 0.00 in0.0 mm
02:45 PM 62.1°F16.7°C 51.8°F11.0°C 69% Calm Calm 2.3 mph3.7 kmh 29.96 in1014.6 mb - 0.00 in0.0 mm 0.00 in0.0 mm
02:50 PM 62.2°F16.8°C 51.5°F10.8°C 68% 1.2 mph N1.9 kmh N 3.5 mph5.6 kmh 29.96 in1014.6 mb - 0.00 in0.0 mm 0.00 in0.0 mm
02:55 PM 62.2°F16.8°C 51.5°F10.8°C 68% 6.9 mph E11.1 kmh E 10.4 mph16.7 kmh 29.96 in1014.6 mb - 0.00 in0.0 mm 0.00 in0.0 mm
03:00 PM 62.1°F16.7°C 51.4°F10.8°C 68% 5.8 mph E9.3 kmh E 9.2 mph14.8 kmh 29.96 in1014.6 mb - 0.00 in0.0 mm 0.00 in0.0 mm
03:10 PM 62.1°F16.7°C 51.8°F11.0°C 69% 3.5 mph SE5.6 kmh SE 10.4 mph16.7 kmh 29.96 in1014.6 mb - 0.00 in0.0 mm 0.00 in0.0 mm
03:15 PM 62.1°F16.7°C 51.8°F11.0°C 69% 2.3 mph SE3.7 kmh SE 8.1 mph13.0 kmh 29.96 in1014.6 mb - 0.00 in0.0 mm 0.00 in0.0 mm
03:20 PM 62.0°F16.7°C 51.7°F10.9°C 69% 1.2 mph SE1.9 kmh SE 2.3 mph3.7 kmh 29.96 in1014.6 mb - 0.00 in0.0 mm 0.00 in0.0 mm
03:25 PM 62.0°F16.7°C 51.7°F10.9°C 69% 2.3 mph SE3.7 kmh SE 4.6 mph7.4 kmh 29.96 in1014.6 mb - 0.00 in0.0 mm 0.00 in0.0 mm
03:30 PM 61.9°F16.6°C 51.6°F10.9°C 69% 1.2 mph SE1.9 kmh SE 2.3 mph3.7 kmh 29.96 in1014.6 mb - 0.00 in0.0 mm 0.00 in0.0 mm
03:35 PM 61.9°F16.6°C 51.6°F10.9°C 69% 1.2 mph SE1.9 kmh SE 3.5 mph5.6 kmh 29.96 in1014.6 mb - 0.00 in0.0 mm 0.00 in0.0 mm
03:40 PM 62.0°F16.7°C 51.7°F10.9°C 69% 1.2 mph SE1.9 kmh SE 3.5 mph5.6 kmh 29.96 in1014.6 mb - 0.00 in0.0 mm 0.00 in0.0 mm
03:45 PM 61.9°F16.6°C 51.6°F10.9°C 69% 1.2 mph SE1.9 kmh SE 3.5 mph5.6 kmh 29.95 in1014.2 mb - 0.00 in0.0 mm 0.00 in0.0 mm
03:50 PM 61.8°F16.6°C 51.9°F11.1°C 70% Calm Calm -- 29.96 in1014.6 mb - 0.00 in0.0 mm 0.00 in0.0 mm
03:55 PM 61.9°F16.6°C 52.0°F11.1°C 70% Calm Calm -- 29.96 in1014.6 mb - 0.00 in0.0 mm 0.00 in0.0 mm
04:00 PM 61.9°F16.6°C 52.4°F11.3°C 71% 3.5 mph SE5.6 kmh SE 4.6 mph7.4 kmh 29.96 in1014.6 mb - 0.00 in0.0 mm 0.00 in0.0 mm
04:10 PM 61.9°F16.6°C 52.8°F11.6°C 72% 1.2 mph SE1.9 kmh SE 2.3 mph3.7 kmh 29.95 in1014.2 mb - 0.00 in0.0 mm 0.00 in0.0 mm
04:15 PM 61.8°F16.6°C 52.7°F11.5°C 72% Calm Calm -- 29.95 in1014.2 mb - 0.00 in0.0 mm 0.00 in0.0 mm
04:20 PM 61.8°F16.6°C 52.7°F11.5°C 72% Calm Calm 3.5 mph5.6 kmh 29.95 in1014.2 mb - 0.00 in0.0 mm 0.00 in0.0 mm
04:25 PM 61.7°F16.5°C 52.6°F11.4°C 72% 2.3 mph SE3.7 kmh SE 3.5 mph5.6 kmh 29.95 in1014.2 mb - 0.00 in0.0 mm 0.00 in0.0 mm
04:30 PM 61.6°F16.4°C 52.9°F11.6°C 73% 1.2 mph SE1.9 kmh SE 2.3 mph3.7 kmh 29.95 in1014.2 mb - 0.00 in0.0 mm 0.00 in0.0 mm
04:35 PM 61.5°F16.4°C 52.8°F11.6°C 73% Calm Calm -- 29.95 in1014.2 mb - 0.00 in0.0 mm 0.00 in0.0 mm
04:40 PM 61.3°F16.3°C 52.9°F11.6°C 74% Calm Calm 3.5 mph5.6 kmh 29.95 in1014.2 mb - 0.00 in0.0 mm 0.00 in0.0 mm
04:45 PM 61.1°F16.2°C 52.8°F11.6°C 74% 2.3 mph SE3.7 kmh SE 3.5 mph5.6 kmh 29.95 in1014.2 mb - 0.00 in0.0 mm 0.00 in0.0 mm
04:50 PM 60.9°F16.1°C 52.6°F11.4°C 74% 3.5 mph SE5.6 kmh SE 6.9 mph11.1 kmh 29.95 in1014.2 mb - 0.00 in0.0 mm 0.00 in0.0 mm
04:55 PM 60.7°F15.9°C 52.3°F11.3°C 74% 5.8 mph SE9.3 kmh SE 9.2 mph14.8 kmh 29.95 in1014.2 mb - 0.00 in0.0 mm 0.00 in0.0 mm
05:00 PM 60.4°F15.8°C 52.1°F11.2°C 74% 5.8 mph SE9.3 kmh SE 10.4 mph16.7 kmh 29.95 in1014.2 mb - 0.00 in0.0 mm 0.00 in0.0 mm
05:10 PM 60.2°F15.7°C 52.2°F11.2°C 75% 2.3 mph SE3.7 kmh SE 4.6 mph7.4 kmh 29.95 in1014.2 mb - 0.00 in0.0 mm 0.00 in0.0 mm
05:15 PM 59.9°F15.5°C 52.0°F11.1°C 75% 2.3 mph SE3.7 kmh SE 3.5 mph5.6 kmh 29.94 in1013.9 mb - 0.00 in0.0 mm 0.00 in0.0 mm
05:20 PM 59.7°F15.4°C 51.8°F11.0°C 75% 1.2 mph SE1.9 kmh SE 3.5 mph5.6 kmh 29.94 in1013.9 mb - 0.00 in0.0 mm 0.00 in0.0 mm
05:25 PM 59.5°F15.3°C 51.6°F10.9°C 75% 1.2 mph SE1.9 kmh SE 2.3 mph3.7 kmh 29.94 in1013.9 mb - 0.00 in0.0 mm 0.00 in0.0 mm
05:30 PM 59.4°F15.2°C 51.5°F10.8°C 75% 1.2 mph SE1.9 kmh SE 3.5 mph5.6 kmh 29.95 in1014.2 mb - 0.00 in0.0 mm 0.00 in0.0 mm
05:35 PM 59.4°F15.2°C 51.8°F11.0°C 76% Calm Calm 2.3 mph3.7 kmh 29.95 in1014.2 mb - 0.00 in0.0 mm 0.00 in0.0 mm
05:40 PM 59.3°F15.2°C 51.7°F10.9°C 76% 1.2 mph SE1.9 kmh SE 2.3 mph3.7 kmh 29.95 in1014.2 mb - 0.00 in0.0 mm 0.00 in0.0 mm
05:45 PM 59.2°F15.1°C 51.6°F10.9°C 76% Calm Calm 1.2 mph1.9 kmh 29.95 in1014.2 mb - 0.00 in0.0 mm 0.00 in0.0 mm
05:50 PM 59.1°F15.1°C 51.5°F10.8°C 76% Calm Calm -- 29.95 in1014.2 mb - 0.00 in0.0 mm 0.00 in0.0 mm
05:55 PM 59.0°F15.0°C 51.4°F10.8°C 76% Calm Calm -- 29.95 in1014.2 mb - 0.00 in0.0 mm 0.00 in0.0 mm
06:00 PM 58.9°F14.9°C 51.7°F10.9°C 77% Calm Calm -- 29.95 in1014.2 mb - 0.00 in0.0 mm 0.00 in0.0 mm
06:10 PM 58.7°F14.8°C 51.5°F10.8°C 77% Calm Calm -- 29.95 in1014.2 mb - 0.00 in0.0 mm 0.00 in0.0 mm
06:15 PM 58.6°F14.8°C 51.8°F11.0°C 78% 3.5 mph SSE5.6 kmh SSE 2.3 mph3.7 kmh 29.95 in1014.2 mb - 0.00 in0.0 mm 0.00 in0.0 mm
06:20 PM 58.3°F14.6°C 51.5°F10.8°C 78% 2.3 mph SSE3.7 kmh SSE 3.5 mph5.6 kmh 29.95 in1014.2 mb - 0.00 in0.0 mm 0.00 in0.0 mm
06:25 PM 58.2°F14.6°C 51.3°F10.7°C 78% Calm Calm 1.2 mph1.9 kmh 29.95 in1014.2 mb - 0.00 in0.0 mm 0.00 in0.0 mm
06:30 PM 58.0°F14.4°C 51.5°F10.8°C 79% Calm Calm -- 29.95 in1014.2 mb - 0.00 in0.0 mm 0.00 in0.0 mm
06:35 PM 57.9°F14.4°C 51.4°F10.8°C 79% Calm Calm -- 29.95 in1014.2 mb - 0.00 in0.0 mm 0.00 in0.0 mm
06:40 PM 57.8°F14.3°C 51.3°F10.7°C 79% Calm Calm -- 29.95 in1014.2 mb - 0.00 in0.0 mm 0.00 in0.0 mm
06:45 PM 57.6°F14.2°C 51.1°F10.6°C 79% 3.5 mph SSE5.6 kmh SSE 5.8 mph9.3 kmh 29.95 in1014.2 mb - 0.00 in0.0 mm 0.00 in0.0 mm
06:50 PM 57.3°F14.1°C 51.2°F10.7°C 80% 3.5 mph SSE5.6 kmh SSE 6.9 mph11.1 kmh 29.95 in1014.2 mb - 0.00 in0.0 mm 0.00 in0.0 mm
06:55 PM 57.1°F13.9°C 51.0°F10.6°C 80% 1.2 mph SSE1.9 kmh SSE 3.5 mph5.6 kmh 29.95 in1014.2 mb - 0.00 in0.0 mm 0.00 in0.0 mm
07:00 PM 56.8°F13.8°C 51.0°F10.6°C 81% 3.5 mph SSE5.6 kmh SSE 6.9 mph11.1 kmh 29.95 in1014.2 mb - 0.00 in0.0 mm 0.00 in0.0 mm
07:10 PM 56.5°F13.6°C 51.1°F10.6°C 82% 1.2 mph SSE1.9 kmh SSE 2.3 mph3.7 kmh 29.95 in1014.2 mb - 0.00 in0.0 mm 0.00 in0.0 mm
07:15 PM 56.4°F13.6°C 51.0°F10.6°C 82% Calm Calm -- 29.94 in1013.9 mb - 0.00 in0.0 mm 0.00 in0.0 mm
07:20 PM 56.2°F13.4°C 50.8°F10.4°C 82% 1.2 mph SSE1.9 kmh SSE 2.3 mph3.7 kmh 29.94 in1013.9 mb - 0.00 in0.0 mm 0.00 in0.0 mm
07:25 PM 56.1°F13.4°C 51.0°F10.6°C 83% Calm Calm -- 29.94 in1013.9 mb - 0.00 in0.0 mm 0.00 in0.0 mm
07:30 PM 55.9°F13.3°C 50.8°F10.4°C 83% 3.5 mph SSE5.6 kmh SSE 4.6 mph7.4 kmh 29.94 in1013.9 mb - 0.00 in0.0 mm 0.00 in0.0 mm
07:35 PM 55.8°F13.2°C 50.7°F10.4°C 83% Calm Calm 2.3 mph3.7 kmh 29.94 in1013.9 mb - 0.00 in0.0 mm 0.00 in0.0 mm
07:40 PM 55.6°F13.1°C 50.5°F10.3°C 83% 1.2 mph SSE1.9 kmh SSE 2.3 mph3.7 kmh 29.94 in1013.9 mb - 0.00 in0.0 mm 0.00 in0.0 mm
07:45 PM 55.5°F13.1°C 50.7°F10.4°C 84% Calm Calm -- 29.94 in1013.9 mb - 0.00 in0.0 mm 0.00 in0.0 mm
07:50 PM 55.4°F13.0°C 50.6°F10.3°C 84% Calm Calm -- 29.94 in1013.9 mb - 0.00 in0.0 mm 0.00 in0.0 mm
07:55 PM 55.2°F12.9°C 50.5°F10.3°C 84% Calm Calm -- 29.94 in1013.9 mb - 0.00 in0.0 mm 0.00 in0.0 mm
08:00 PM 55.1°F12.8°C 50.4°F10.2°C 84% 2.3 mph SSE3.7 kmh SSE 4.6 mph7.4 kmh 29.94 in1013.9 mb - 0.00 in0.0 mm 0.00 in0.0 mm
08:10 PM 54.8°F12.7°C 50.4°F10.2°C 85% 1.2 mph SSE1.9 kmh SSE 2.3 mph3.7 kmh 29.94 in1013.9 mb - 0.00 in0.0 mm 0.00 in0.0 mm
08:15 PM 54.7°F12.6°C 50.6°F10.3°C 86% 1.2 mph SSE1.9 kmh SSE 3.5 mph5.6 kmh 29.94 in1013.9 mb - 0.00 in0.0 mm 0.00 in0.0 mm
08:20 PM 54.7°F12.6°C 50.6°F10.3°C 86% 1.2 mph SSE1.9 kmh SSE 2.3 mph3.7 kmh 29.94 in1013.9 mb - 0.00 in0.0 mm 0.00 in0.0 mm
08:25 PM 54.6°F12.6°C 50.5°F10.3°C 86% 1.2 mph SSE1.9 kmh SSE 1.2 mph1.9 kmh 29.94 in1013.9 mb - 0.00 in0.0 mm 0.00 in0.0 mm
08:30 PM 54.6°F12.6°C 50.8°F10.4°C 87% Calm Calm -- 29.94 in1013.9 mb - 0.00 in0.0 mm 0.00 in0.0 mm
08:35 PM 54.6°F12.6°C 50.8°F10.4°C 87% Calm Calm -- 29.94 in1013.9 mb - 0.00 in0.0 mm 0.00 in0.0 mm
08:40 PM 54.6°F12.6°C 50.8°F10.4°C 87% Calm Calm -- 29.94 in1013.9 mb - 0.00 in0.0 mm 0.00 in0.0 mm
08:45 PM 54.6°F12.6°C 50.8°F10.4°C 87% Calm Calm -- 29.94 in1013.9 mb - 0.00 in0.0 mm 0.00 in0.0 mm
08:50 PM 54.6°F12.6°C 50.8°F10.4°C 87% Calm Calm -- 29.94 in1013.9 mb - 0.00 in0.0 mm 0.00 in0.0 mm
08:55 PM 54.7°F12.6°C 50.9°F10.5°C 87% Calm Calm -- 29.94 in1013.9 mb - 0.00 in0.0 mm 0.00 in0.0 mm
09:00 PM 54.7°F12.6°C 50.9°F10.5°C 87% Calm Calm -- 29.94 in1013.9 mb - 0.00 in0.0 mm 0.00 in0.0 mm
09:10 PM 54.8°F12.7°C 51.3°F10.7°C 88% Calm Calm -- 29.94 in1013.9 mb - 0.00 in0.0 mm 0.00 in0.0 mm
09:15 PM 54.8°F12.7°C 51.3°F10.7°C 88% Calm Calm -- 29.93 in1013.5 mb - 0.00 in0.0 mm 0.00 in0.0 mm
09:20 PM 54.8°F12.7°C 51.3°F10.7°C 88% Calm Calm -- 29.93 in1013.5 mb - 0.00 in0.0 mm 0.00 in0.0 mm
09:25 PM 54.8°F12.7°C 51.3°F10.7°C 88% Calm Calm -- 29.94 in1013.9 mb - 0.00 in0.0 mm 0.00 in0.0 mm
09:30 PM 54.9°F12.7°C 51.4°F10.8°C 88% Calm Calm -- 29.93 in1013.5 mb - 0.00 in0.0 mm 0.00 in0.0 mm
09:35 PM 54.9°F12.7°C 51.4°F10.8°C 88% Calm Calm -- 29.93 in1013.5 mb - 0.00 in0.0 mm 0.00 in0.0 mm
09:40 PM 54.9°F12.7°C 51.4°F10.8°C 88% Calm Calm -- 29.93 in1013.5 mb - 0.00 in0.0 mm 0.00 in0.0 mm
09:45 PM 55.0°F12.8°C 51.5°F10.8°C 88% Calm Calm -- 29.93 in1013.5 mb - 0.00 in0.0 mm 0.00 in0.0 mm
09:50 PM 55.0°F12.8°C 51.5°F10.8°C 88% Calm Calm -- 29.93 in1013.5 mb - 0.00 in0.0 mm 0.00 in0.0 mm
09:55 PM 54.9°F12.7°C 51.4°F10.8°C 88% Calm Calm -- 29.93 in1013.5 mb - 0.00 in0.0 mm 0.00 in0.0 mm
10:00 PM 54.9°F12.7°C 51.5°F10.8°C 88% Calm Calm -- 29.93 in1013.5 mb - 0.00 in0.0 mm 0.00 in0.0 mm
10:10 PM 55.0°F12.8°C 51.8°F11.0°C 89% 1.2 mph SSE1.9 kmh SSE 4.6 mph7.4 kmh 29.93 in1013.5 mb - 0.00 in0.0 mm 0.00 in0.0 mm
10:15 PM 55.0°F12.8°C 51.8°F11.0°C 89% Calm Calm 1.2 mph1.9 kmh 29.93 in1013.5 mb - 0.00 in0.0 mm 0.00 in0.0 mm
10:20 PM 55.1°F12.8°C 51.9°F11.1°C 89% Calm Calm 1.2 mph1.9 kmh 29.93 in1013.5 mb - 0.00 in0.0 mm 0.00 in0.0 mm
10:25 PM 55.1°F12.8°C 51.9°F11.1°C 89% Calm Calm 1.2 mph1.9 kmh 29.92 in1013.2 mb - 0.00 in0.0 mm 0.00 in0.0 mm
10:30 PM 55.1°F12.8°C 51.9°F11.1°C 89% Calm Calm -- 29.92 in1013.2 mb - 0.00 in0.0 mm 0.00 in0.0 mm
10:35 PM 55.1°F12.8°C 51.9°F11.1°C 89% Calm Calm -- 29.92 in1013.2 mb - 0.00 in0.0 mm 0.00 in0.0 mm
10:40 PM 55.1°F12.8°C 51.9°F11.1°C 89% Calm Calm -- 29.92 in1013.2 mb - 0.00 in0.0 mm 0.00 in0.0 mm
10:45 PM 55.2°F12.9°C 52.0°F11.1°C 89% Calm Calm -- 29.91 in1012.9 mb - 0.00 in0.0 mm 0.00 in0.0 mm
10:50 PM 55.2°F12.9°C 52.0°F11.1°C 89% Calm Calm -- 29.91 in1012.9 mb - 0.00 in0.0 mm 0.00 in0.0 mm
10:55 PM 55.2°F12.9°C 52.0°F11.1°C 89% Calm Calm -- 29.91 in1012.9 mb - 0.00 in0.0 mm 0.00 in0.0 mm
11:00 PM 55.2°F12.9°C 52.0°F11.1°C 89% Calm Calm -- 29.91 in1012.9 mb - 0.00 in0.0 mm 0.00 in0.0 mm
11:10 PM 55.4°F13.0°C 52.2°F11.2°C 89% Calm Calm -- 29.91 in1012.9 mb - 0.00 in0.0 mm 0.00 in0.0 mm
11:15 PM 55.4°F13.0°C 52.2°F11.2°C 89% Calm Calm -- 29.91 in1012.9 mb - 0.00 in0.0 mm 0.00 in0.0 mm
11:20 PM 55.5°F13.1°C 52.3°F11.3°C 89% Calm Calm -- 29.91 in1012.9 mb - 0.00 in0.0 mm 0.00 in0.0 mm
11:25 PM 55.5°F13.1°C 52.3°F11.3°C 89% Calm Calm 1.2 mph1.9 kmh 29.91 in1012.9 mb - 0.00 in0.0 mm 0.00 in0.0 mm
11:30 PM 55.6°F13.1°C 52.4°F11.3°C 89% Calm Calm 1.2 mph1.9 kmh 29.91 in1012.9 mb - 0.00 in0.0 mm 0.00 in0.0 mm
11:35 PM 55.6°F13.1°C 52.4°F11.3°C 89% Calm Calm 2.3 mph3.7 kmh 29.91 in1012.9 mb - 0.00 in0.0 mm 0.00 in0.0 mm
11:40 PM 55.6°F13.1°C 52.4°F11.3°C 89% Calm Calm -- 29.91 in1012.9 mb - 0.00 in0.0 mm 0.00 in0.0 mm
11:45 PM 55.6°F13.1°C 52.4°F11.3°C 89% Calm Calm -- 29.91 in1012.9 mb - 0.00 in0.0 mm 0.00 in0.0 mm
11:50 PM 55.7°F13.2°C 52.5°F11.4°C 89% Calm Calm -- 29.91 in1012.9 mb - 0.00 in0.0 mm 0.00 in0.0 mm
11:55 PM 55.8°F13.2°C 52.6°F11.4°C 89% Calm Calm -- 29.90 in1012.5 mb - 0.00 in0.0 mm 0.00 in0.0 mm